CheckWX is a tool to help pilots better visualize weather data.  It is not intended as a substitute for an official pre-flight weather briefing.

08:05:23 UTC

SEGU TAF
José Joaquín de Olmedo International Airport
Guayaquil, Ecuador
SEGU 190430Z 1906/2006 30005KT 8000 RA FEW010 BKN020 OVC100 FM191300 05004KT 9999 BKN020 BKN100 FM191800 15004KT 9999 SCT020 SCT100 TEMPO 1921/1923 SHRA FM200000 27004KT 9999 BKN020 BKN100 TEMPO 2000/2003 8000 RA TX32/1918Z TN24/1906Z

Mar-19@
06:00 UTC

Mar-19 @ 06:00 UTC

Mar-19@
13:00 UTC

Mar-19 @ 13:00 UTC

SEGU 190430Z 1906/2006 30005KT 8000 RA FEW010 BKN020 OVC100
Wind
  • 300° at 5 KTS
Conditions
Rain
Cloud Levels
  • Few at 1,000' AGL
  • Broken at 2,000' AGL
  • Overcast at 10,000' AGL

Mar-19@
13:00 UTC

Mar-19 @ 13:00 UTC

Mar-19@
18:00 UTC

Mar-19 @ 18:00 UTC

FM191300 05004KT 9999 BKN020 BKN100

From

From Standard forecast or significant change

Wind
  • 050° at 4 KTS
Cloud Levels
  • Broken at 2,000' AGL
  • Broken at 10,000' AGL

Mar-19@
18:00 UTC

Mar-19 @ 18:00 UTC

Mar-20@
00:00 UTC

Mar-20 @ 00:00 UTC

FM191800 15004KT 9999 SCT020 SCT100

From

From Standard forecast or significant change

Wind
  • 150° at 4 KTS
Cloud Levels
  • Scattered at 2,000' AGL
  • Scattered at 10,000' AGL

Mar-19@
21:00 UTC

Mar-19 @ 21:00 UTC

Mar-19@
23:00 UTC

Mar-19 @ 23:00 UTC

TEMPO 1921/1923 SHRA

Temporary

Temporary Changes expected for less than half the time period

Conditions
Rain

Mar-20@
00:00 UTC

Mar-20 @ 00:00 UTC

Mar-20@
03:00 UTC

Mar-20 @ 03:00 UTC

TEMPO 2000/2003 8000 RA TX32/1918Z TN24/1906Z

Temporary

Temporary Changes expected for less than half the time period

Conditions
Rain

Mar-20@
00:00 UTC

Mar-20 @ 00:00 UTC

Mar-20@
06:00 UTC

Mar-20 @ 06:00 UTC

FM200000 27004KT 9999 BKN020 BKN100

From

From Standard forecast or significant change

Wind
  • 270° at 4 KTS
Cloud Levels
  • Broken at 2,000' AGL
  • Broken at 10,000' AGL